Time;durP1;ratioP1;P1;durP2;ratioP2;P2;SDS_P1;SDS_P2;PMS_P1;PMS_P2;Temp;Humidity;BMP_temperature;BMP_pressure;BME280_temperature;BME280_humidity;BME280_pressure;Samples;Min_cycle;Max_cycle;Signal;HPM_P1;HPM_P2
2022/09/27 00:02:31;;;;;;;30.80;17.98;;;;;;;8.00;100.00;97813.55;4201064;83;21050;-83
2022/09/27 00:08:35;;;;;;;26.35;19.10;;;;;;;7.93;100.00;97812.19;4211294;83;21031;-83
2022/09/27 00:14:36;;;;;;;27.95;17.00;;;;;;;7.88;100.00;97799.50;4193531;83;21023;-83
2022/09/27 00:20:37;;;;;;;28.80;18.23;;;;;;;7.78;100.00;97803.00;4202669;83;21531;-84
2022/09/27 00:26:39;;;;;;;31.37;18.50;;;;;;;7.75;100.00;97799.68;4201883;83;21026;-83
2022/09/27 00:32:40;;;;;;;25.48;17.67;;;;;;;7.59;100.00;97789.70;4198305;83;21511;-83
2022/09/27 00:38:52;;;;;;;26.20;15.85;;;;;;;7.41;100.00;97784.17;4220290;82;20971;-83
2022/09/27 00:45:09;;;;;;;31.02;17.42;;;;;;;7.28;100.00;97780.82;4164974;83;22010;-83
2022/09/27 00:51:10;;;;;;;19.32;14.28;;;;;;;7.24;100.00;97766.40;4180980;83;21087;-84
2022/09/27 00:57:12;;;;;;;32.17;13.48;;;;;;;7.17;100.00;97764.42;4186022;83;21573;-84
2022/09/27 01:03:31;;;;;;;22.27;11.97;;;;;;;7.12;100.00;97753.13;4175514;83;20991;-83
2022/09/27 01:09:33;;;;;;;17.60;13.18;;;;;;;7.10;100.00;97747.28;4187689;83;21103;-83
2022/09/27 01:15:47;;;;;;;15.88;11.80;;;;;;;7.02;100.00;97748.41;4242894;83;20948;-82
2022/09/27 01:22:06;;;;;;;21.97;13.18;;;;;;;7.18;100.00;97740.14;4188750;83;21063;-83
2022/09/27 01:28:45;;;;;;;14.70;11.25;;;;;;;7.15;100.00;97728.66;4184925;82;21011;-83
2022/09/27 01:35:05;;;;;;;17.90;12.15;;;;;;;7.16;100.00;97728.85;4172252;83;21527;-83
2022/09/27 01:41:17;;;;;;;16.20;11.40;;;;;;;7.07;100.00;97724.92;4200012;82;21027;-83
2022/09/27 01:47:44;;;;;;;16.55;12.85;;;;;;;7.07;100.00;97720.27;4145284;83;21520;-83
2022/09/27 01:53:52;;;;;;;22.70;12.03;;;;;;;7.01;100.00;97700.60;4188728;83;21018;-83
2022/09/27 02:00:11;;;;;;;39.48;14.18;;;;;;;6.98;100.00;97702.73;4182162;83;21913;-84
2022/09/27 02:06:30;;;;;;;47.03;13.95;;;;;;;6.91;100.00;97686.36;4202232;82;21083;-83
2022/09/27 02:12:40;;;;;;;21.20;13.60;;;;;;;6.90;100.00;97681.52;4187013;83;21471;-83
2022/09/27 02:19:10;;;;;;;23.95;13.78;;;;;;;6.90;100.00;97680.73;4194289;82;22092;-83
2022/09/27 02:25:29;;;;;;;27.27;14.70;;;;;;;6.84;100.00;97680.90;4132545;84;21027;-84
2022/09/27 02:31:31;;;;;;;19.05;13.00;;;;;;;6.81;100.00;97676.22;4144459;84;21040;-83
2022/09/27 02:37:33;;;;;;;18.67;13.40;;;;;;;6.83;100.00;97675.27;4047897;86;22274;-83
2022/09/27 02:43:36;;;;;;;24.63;14.00;;;;;;;6.85;100.00;97660.69;4193944;83;21023;-84
2022/09/27 02:50:07;;;;;;;16.37;11.60;;;;;;;6.77;100.00;97659.09;4199477;82;21094;-83
2022/09/27 02:57:00;;;;;;;19.77;13.28;;;;;;;6.74;100.00;97652.48;4126956;86;21511;-83
2022/09/27 03:03:37;;;;;;;16.15;11.00;;;;;;;6.59;100.00;97635.12;4201913;83;21894;-83
2022/09/27 03:09:50;;;;;;;28.60;11.53;;;;;;;6.46;100.00;97643.40;4182535;83;21506;-83
2022/09/27 03:15:52;;;;;;;16.35;11.73;;;;;;;6.54;100.00;97637.63;4198852;83;21063;-83
2022/09/27 03:21:53;;;;;;;16.85;11.05;;;;;;;6.49;100.00;97650.80;4180121;83;21033;-83
2022/09/27 03:27:55;;;;;;;25.52;13.05;;;;;;;6.52;100.00;97655.47;4161547;83;21171;-83
2022/09/27 03:33:56;;;;;;;33.00;12.73;;;;;;;6.61;100.00;97641.73;4210084;83;21058;-83
2022/09/27 03:39:58;;;;;;;25.23;13.15;;;;;;;6.48;100.00;97631.00;4175595;83;21098;-83
2022/09/27 03:46:00;;;;;;;31.35;13.88;;;;;;;6.42;100.00;97627.66;4175785;83;21091;-83
2022/09/27 03:52:01;;;;;;;55.45;15.40;;;;;;;6.26;100.00;97621.17;4201870;83;20984;-83
2022/09/27 03:58:03;;;;;;;58.45;14.47;;;;;;;6.11;100.00;97627.65;4265537;81;33273;-83
2022/09/27 04:04:07;;;;;;;36.68;14.50;;;;;;;6.07;100.00;97616.00;4197270;83;21662;-83
2022/09/27 04:10:09;;;;;;;31.95;12.70;;;;;;;6.09;100.00;97613.69;4205331;83;21834;-82
2022/09/27 04:16:11;;;;;;;26.40;11.75;;;;;;;6.05;100.00;97606.86;4199087;83;21492;-83
2022/09/27 04:22:15;;;;;;;25.80;13.20;;;;;;;6.01;100.00;97593.82;4193066;83;21063;-83
2022/09/27 04:28:17;;;;;;;25.77;12.00;;;;;;;5.89;100.00;97594.70;4217405;83;21085;-83
2022/09/27 04:36:25;;;;;;;19.85;11.68;;;;;;;5.83;100.00;97588.86;4259492;82;21005;-83
2022/09/27 04:40:23;;;;;;;14.85;10.70;;;;;;;5.68;100.00;97593.17;4254180;81;21086;-83
2022/09/27 04:46:31;;;;;;;13.38;10.60;;;;;;;5.79;100.00;97600.83;4204109;82;21087;-83
2022/09/27 04:52:35;;;;;;;;;;;;;;;5.93;100.00;97611.25;4228654;83;21107;-83
2022/09/27 04:58:36;;;;;;;13.93;10.30;;;;;;;5.94;100.00;97589.71;4202079;83;20123;-83
2022/09/27 05:04:38;;;;;;;15.28;10.98;;;;;;;5.78;100.00;97584.34;4204216;83;21031;-82
2022/09/27 05:10:40;;;;;;;12.18;9.80;;;;;;;5.78;100.00;97575.59;4236742;82;21032;-82
2022/09/27 05:16:42;;;;;;;13.75;10.18;;;;;;;5.77;100.00;97569.98;4225124;82;21036;-84
2022/09/27 05:22:55;;;;;;;23.67;12.58;;;;;;;5.84;100.00;97563.84;4123387;82;21492;-83
2022/09/27 05:28:58;;;;;;;21.30;12.53;;;;;;;5.77;100.00;97567.27;4222219;82;21076;-82
2022/09/27 05:35:02;;;;;;;32.53;14.13;;;;;;;5.68;100.00;97568.73;4231126;83;21774;-84
